createdAt,value
2023-05-17T00:01:08.788Z,13.50
2023-05-17T00:03:37.478Z,13.50
2023-05-17T00:06:05.728Z,13.40
2023-05-17T00:08:33.659Z,13.40
2023-05-17T00:11:01.596Z,13.40
2023-05-17T00:13:29.401Z,13.40
2023-05-17T00:15:57.280Z,13.40
2023-05-17T00:18:25.302Z,13.40
2023-05-17T00:20:53.160Z,13.32
2023-05-17T00:23:21.195Z,13.30
2023-05-17T00:25:48.990Z,13.32
2023-05-17T00:28:16.993Z,13.30
2023-05-17T00:30:44.909Z,13.32
2023-05-17T00:33:12.978Z,13.40
2023-05-17T00:35:43.539Z,13.40
2023-05-17T00:38:12.842Z,13.32
2023-05-17T00:40:40.813Z,13.32
2023-05-17T00:43:08.761Z,13.30
2023-05-17T00:45:36.743Z,13.30
2023-05-17T00:48:05.463Z,13.30
2023-05-17T00:50:33.613Z,13.30
2023-05-17T00:53:01.569Z,13.30
2023-05-17T00:55:29.639Z,13.30
2023-05-17T00:57:57.891Z,13.30
2023-05-17T01:00:25.893Z,13.30
2023-05-17T01:02:53.770Z,13.30
2023-05-17T01:05:21.652Z,13.26
2023-05-17T01:07:49.509Z,13.22
2023-05-17T01:10:17.369Z,13.20
2023-05-17T01:12:58.930Z,13.20
2023-05-17T01:15:31.813Z,13.20
2023-05-17T01:18:22.056Z,13.20
2023-05-17T01:20:50.009Z,13.20
2023-05-17T01:23:31.953Z,13.20
2023-05-17T01:26:13.555Z,13.20
2023-05-17T01:28:42.187Z,13.18
2023-05-17T01:31:10.138Z,13.10
2023-05-17T01:33:38.543Z,13.10
2023-05-17T01:36:07.493Z,13.10
2023-05-17T01:38:36.702Z,13.10
2023-05-17T01:41:16.632Z,13.08
2023-05-17T01:43:49.309Z,13.00
2023-05-17T01:46:39.552Z,13.00
2023-05-17T01:49:30.940Z,13.00
2023-05-17T01:52:16.770Z,13.00
2023-05-17T01:54:54.980Z,13.00
2023-05-17T01:57:28.764Z,13.00
2023-05-17T01:59:56.630Z,13.00
2023-05-17T02:02:24.586Z,13.00
2023-05-17T02:04:52.669Z,12.92
2023-05-17T02:07:20.674Z,12.90
2023-05-17T02:09:48.596Z,12.90
2023-05-17T02:12:16.455Z,12.90
2023-05-17T02:14:44.294Z,12.80
2023-05-17T02:17:13.527Z,12.80
2023-05-17T02:19:41.570Z,12.80
2023-05-17T02:22:09.519Z,12.80
2023-05-17T02:24:37.439Z,12.80
2023-05-17T02:27:06.510Z,12.80
2023-05-17T02:29:34.492Z,12.80
2023-05-17T02:32:02.480Z,12.80
2023-05-17T02:34:30.255Z,12.80
2023-05-17T02:36:58.156Z,12.80
2023-05-17T02:39:26.112Z,12.80
2023-05-17T02:41:53.978Z,12.80
2023-05-17T02:44:21.846Z,12.80
2023-05-17T02:46:49.711Z,12.80
2023-05-17T02:49:17.731Z,12.70
2023-05-17T02:51:45.681Z,12.80
2023-05-17T02:54:13.525Z,12.70
2023-05-17T02:56:41.477Z,12.76
2023-05-17T02:59:09.597Z,12.80
2023-05-17T03:01:39.258Z,12.74
2023-05-17T03:04:07.273Z,12.72
2023-05-17T03:06:35.229Z,12.76
2023-05-17T03:09:03.622Z,12.80
2023-05-17T03:11:33.150Z,12.70
2023-05-17T03:14:02.521Z,12.70
2023-05-17T03:19:57.693Z,12.80
2023-05-17T03:22:26.450Z,12.80
2023-05-17T03:24:54.940Z,12.80
2023-05-17T03:27:23.147Z,12.80
2023-05-17T03:29:51.192Z,12.80
2023-05-17T03:32:19.027Z,12.80
2023-05-17T03:34:46.894Z,12.80
2023-05-17T03:37:14.949Z,12.80
2023-05-17T03:39:43.585Z,12.76
2023-05-17T03:42:11.619Z,12.70
2023-05-17T03:44:41.090Z,12.70
2023-05-17T03:47:09.422Z,12.70
2023-05-17T03:49:37.367Z,12.70
2023-05-17T03:52:05.999Z,12.70
2023-05-17T03:54:33.956Z,12.70
2023-05-17T03:57:01.776Z,12.70
2023-05-17T03:59:29.884Z,12.70
2023-05-17T04:01:58.153Z,12.70
2023-05-17T04:04:26.914Z,12.70
2023-05-17T04:06:55.065Z,12.70
2023-05-17T04:09:22.897Z,12.70
2023-05-17T04:11:50.823Z,12.70
2023-05-17T04:14:19.357Z,12.60
2023-05-17T04:16:47.895Z,12.60
2023-05-17T04:19:15.867Z,12.50
2023-05-17T04:21:44.649Z,12.50
2023-05-17T04:24:12.681Z,12.50
2023-05-17T04:26:40.750Z,12.40
2023-05-17T04:29:09.848Z,12.40
2023-05-17T04:31:37.650Z,12.30
2023-05-17T04:34:05.915Z,12.30
2023-05-17T04:36:34.164Z,12.30
2023-05-17T04:39:03.666Z,12.30
2023-05-17T04:41:32.046Z,12.30
2023-05-17T04:44:02.494Z,12.30
2023-05-17T04:46:33.775Z,12.40
2023-05-17T04:49:03.294Z,12.36
2023-05-17T04:51:32.347Z,12.40
2023-05-17T04:54:01.236Z,12.40
2023-05-17T04:56:30.286Z,12.40
2023-05-17T04:58:58.935Z,12.40
2023-05-17T05:01:27.022Z,12.40
2023-05-17T05:03:55.454Z,12.40
2023-05-17T05:06:23.985Z,12.40
2023-05-17T05:08:52.730Z,12.40
2023-05-17T05:11:20.879Z,12.40
2023-05-17T05:13:48.919Z,12.40
2023-05-17T05:16:16.900Z,12.40
2023-05-17T05:18:45.676Z,12.36
2023-05-17T05:21:14.236Z,12.30
2023-05-17T05:23:42.758Z,12.30
2023-05-17T05:26:11.738Z,12.30
2023-05-17T05:28:39.706Z,12.20
2023-05-17T05:31:07.707Z,12.20
2023-05-17T05:33:41.392Z,12.14
2023-05-17T05:36:10.336Z,12.10
2023-05-17T05:38:38.297Z,12.10
2023-05-17T05:41:06.613Z,12.10
2023-05-17T05:43:36.271Z,12.06
2023-05-17T05:46:04.897Z,12.10
2023-05-17T05:48:32.796Z,12.10
2023-05-17T05:51:00.707Z,12.10
2023-05-17T05:53:28.725Z,12.10
2023-05-17T05:55:57.045Z,12.10
2023-05-17T05:58:25.123Z,12.10
2023-05-17T06:00:53.616Z,12.10
2023-05-17T06:03:21.483Z,12.10
2023-05-17T06:05:49.488Z,12.00
2023-05-17T06:08:18.569Z,12.00
2023-05-17T06:10:46.473Z,12.00
2023-05-17T06:13:14.383Z,11.90
2023-05-17T06:15:42.246Z,11.90
2023-05-17T06:18:10.197Z,11.80
2023-05-17T06:20:38.295Z,11.80
2023-05-17T06:23:06.104Z,11.80
2023-05-17T06:25:34.028Z,11.80
2023-05-17T06:28:03.112Z,11.70
2023-05-17T06:30:31.570Z,11.70
2023-05-17T06:32:59.909Z,11.80
2023-05-17T06:35:28.158Z,11.80
2023-05-17T06:37:57.424Z,11.90
2023-05-17T06:40:25.633Z,11.90
2023-05-17T06:42:53.922Z,11.90
2023-05-17T06:45:21.997Z,11.90
2023-05-17T06:47:50.023Z,11.90
2023-05-17T06:50:17.952Z,11.80
2023-05-17T06:52:46.858Z,11.90
2023-05-17T06:55:14.698Z,11.90
2023-05-17T06:57:42.516Z,11.90
2023-05-17T07:00:11.464Z,11.90
2023-05-17T07:02:39.662Z,11.90
2023-05-17T07:05:08.124Z,11.90
2023-05-17T07:07:36.293Z,12.00
2023-05-17T07:10:06.135Z,12.00
2023-05-17T07:12:34.380Z,12.00
2023-05-17T07:15:02.352Z,12.00
2023-05-17T07:17:30.319Z,11.92
2023-05-17T07:19:58.259Z,12.00
2023-05-17T07:22:26.383Z,12.00
2023-05-17T07:24:56.735Z,12.00
2023-05-17T07:27:24.654Z,12.00
2023-05-17T07:29:52.444Z,12.02
2023-05-17T07:32:20.442Z,12.10
2023-05-17T07:34:48.281Z,12.10
2023-05-17T07:37:21.268Z,12.18
2023-05-17T07:39:49.118Z,12.20
2023-05-17T07:42:17.193Z,12.30
2023-05-17T07:44:44.995Z,12.30
2023-05-17T07:47:12.944Z,12.30
2023-05-17T07:49:41.252Z,12.40
2023-05-17T07:52:09.166Z,12.30
2023-05-17T07:54:37.026Z,12.20
2023-05-17T07:57:04.996Z,12.10
2023-05-17T07:59:33.609Z,12.00
2023-05-17T08:02:04.229Z,12.00
2023-05-17T08:04:32.479Z,12.08
2023-05-17T08:07:01.290Z,12.00
2023-05-17T08:09:29.205Z,12.00
2023-05-17T08:11:57.612Z,12.00
2023-05-17T08:14:27.107Z,12.00
2023-05-17T08:16:54.955Z,12.00
2023-05-17T08:19:22.997Z,12.00
2023-05-17T08:21:50.996Z,12.00
2023-05-17T08:24:19.185Z,12.02
2023-05-17T08:26:47.371Z,12.10
2023-05-17T08:29:15.193Z,12.00
2023-05-17T08:31:43.073Z,12.06
2023-05-17T08:34:11.371Z,12.10
2023-05-17T08:36:39.597Z,12.10
2023-05-17T08:39:08.658Z,12.10
2023-05-17T08:41:39.581Z,12.14
2023-05-17T08:44:07.450Z,12.20
2023-05-17T08:46:36.954Z,12.26
2023-05-17T08:49:05.063Z,12.28
2023-05-17T08:51:33.020Z,12.30
2023-05-17T08:54:05.906Z,12.40
2023-05-17T08:56:35.839Z,12.44
2023-05-17T08:59:03.921Z,12.50
2023-05-17T09:01:33.208Z,12.50
2023-05-17T09:04:01.449Z,12.60
2023-05-17T09:06:29.423Z,12.70
2023-05-17T09:08:58.524Z,12.80
2023-05-17T09:11:29.175Z,12.90
2023-05-17T09:14:07.077Z,12.96
2023-05-17T09:16:36.776Z,12.96
2023-05-17T09:19:05.946Z,13.00
2023-05-17T09:21:37.119Z,13.00
2023-05-17T09:24:08.013Z,13.00
2023-05-17T09:26:44.983Z,13.02
2023-05-17T09:29:15.447Z,13.00
2023-05-17T09:31:43.705Z,13.00
2023-05-17T09:34:11.977Z,12.90
2023-05-17T09:36:42.878Z,12.90
2023-05-17T09:39:13.244Z,12.80
2023-05-17T09:41:48.245Z,12.70
2023-05-17T09:44:16.622Z,12.60
2023-05-17T09:46:47.888Z,12.56
2023-05-17T09:49:17.377Z,12.60
2023-05-17T09:51:48.276Z,12.60
2023-05-17T09:54:17.834Z,12.66
2023-05-17T09:56:53.411Z,12.60
2023-05-17T09:59:21.345Z,12.68
2023-05-17T10:01:50.386Z,12.70
2023-05-17T10:04:20.829Z,12.80
2023-05-17T10:06:52.035Z,12.80
2023-05-17T10:09:22.778Z,12.70
2023-05-17T10:11:52.387Z,12.86
2023-05-17T10:14:32.453Z,13.00
2023-05-17T10:17:01.799Z,13.10
2023-05-17T10:19:29.653Z,13.20
2023-05-17T10:22:07.851Z,13.40
2023-05-17T10:24:46.608Z,13.50
2023-05-17T10:27:14.322Z,13.60
2023-05-17T10:29:42.423Z,13.60
2023-05-17T10:32:13.029Z,13.60
2023-05-17T10:34:41.034Z,13.70
2023-05-17T10:37:08.953Z,13.70
2023-05-17T10:39:38.921Z,13.70
2023-05-17T10:42:14.928Z,13.78
2023-05-17T10:44:43.501Z,13.86
2023-05-17T10:47:12.210Z,13.90
2023-05-17T10:49:41.665Z,14.00
2023-05-17T10:52:14.086Z,14.10
2023-05-17T10:54:43.651Z,14.10
2023-05-17T10:57:49.993Z,14.10
2023-05-17T11:00:20.455Z,14.12
2023-05-17T11:02:49.245Z,14.20
2023-05-17T11:05:24.790Z,14.20
2023-05-17T11:07:52.783Z,14.20
2023-05-17T11:10:21.241Z,14.02
2023-05-17T11:12:54.235Z,13.90
2023-05-17T11:15:26.601Z,13.80
2023-05-17T11:17:56.227Z,13.80
2023-05-17T11:20:24.255Z,13.80
2023-05-17T11:23:01.593Z,13.90
2023-05-17T11:25:38.149Z,13.90
2023-05-17T11:28:17.777Z,13.80
2023-05-17T11:30:51.780Z,13.80
2023-05-17T11:33:32.759Z,13.80
2023-05-17T11:36:19.715Z,13.80
2023-05-17T11:39:10.159Z,13.88
2023-05-17T11:41:42.407Z,13.90
2023-05-17T11:44:10.272Z,13.90
2023-05-17T11:46:39.142Z,13.94
2023-05-17T11:49:07.696Z,13.90
2023-05-17T11:51:35.754Z,13.90
2023-05-17T11:54:04.345Z,13.80
2023-05-17T11:59:10.892Z,13.76
2023-05-17T12:01:46.227Z,13.70
2023-05-17T12:04:14.501Z,13.70
2023-05-17T12:06:43.930Z,13.62
2023-05-17T12:09:13.481Z,13.60
2023-05-17T12:11:41.381Z,13.60
2023-05-17T12:14:09.606Z,13.70
2023-05-17T12:16:37.492Z,13.70
2023-05-17T12:19:05.484Z,13.64
2023-05-17T12:21:33.402Z,13.60
2023-05-17T12:24:01.343Z,13.60
2023-05-17T12:26:29.245Z,13.50
2023-05-17T12:28:59.765Z,13.50
2023-05-17T12:34:53.807Z,13.50
2023-05-17T12:37:21.670Z,13.50
2023-05-17T12:39:49.602Z,13.58
2023-05-17T12:42:17.380Z,13.64
2023-05-17T12:44:45.399Z,13.70
2023-05-17T12:47:13.251Z,13.70
2023-05-17T12:49:55.166Z,13.70
2023-05-17T12:52:22.977Z,13.80
2023-05-17T12:54:50.801Z,13.80
2023-05-17T12:57:20.148Z,13.80
2023-05-17T12:59:54.718Z,13.80
2023-05-17T13:02:23.821Z,13.80
2023-05-17T13:04:52.127Z,13.70
2023-05-17T13:07:26.464Z,13.60
2023-05-17T13:09:54.298Z,13.52
2023-05-17T13:12:23.801Z,13.40
2023-05-17T13:14:53.422Z,13.28
2023-05-17T13:17:35.477Z,13.30
2023-05-17T13:20:05.323Z,13.22
2023-05-17T13:22:34.453Z,13.22
2023-05-17T13:25:03.205Z,13.20
2023-05-17T13:27:31.132Z,13.20
2023-05-17T13:29:59.048Z,13.14
2023-05-17T13:32:27.543Z,13.20
2023-05-17T13:34:55.526Z,13.20
2023-05-17T13:37:23.311Z,13.10
2023-05-17T13:39:51.338Z,13.10
2023-05-17T13:42:19.132Z,13.10
2023-05-17T13:44:46.936Z,13.02
2023-05-17T13:47:15.036Z,13.00
2023-05-17T13:49:42.828Z,13.00
2023-05-17T13:52:13.253Z,13.00
2023-05-17T13:54:41.252Z,13.00
2023-05-17T13:57:09.155Z,13.00
2023-05-17T13:59:37.114Z,13.04
2023-05-17T14:02:05.281Z,13.10
2023-05-17T14:04:33.551Z,13.10
2023-05-17T14:07:03.417Z,13.16
2023-05-17T14:09:34.582Z,13.20
2023-05-17T14:12:02.507Z,13.20
2023-05-17T14:14:30.464Z,13.28
2023-05-17T14:16:58.374Z,13.30
2023-05-17T14:19:26.303Z,13.30
2023-05-17T14:21:54.208Z,13.30
2023-05-17T14:24:22.632Z,13.20
2023-05-17T14:26:50.734Z,13.22
2023-05-17T14:29:18.552Z,13.28
2023-05-17T14:31:46.528Z,13.20
2023-05-17T14:34:14.553Z,13.20
2023-05-17T14:36:42.396Z,13.20
2023-05-17T14:39:10.587Z,13.20
2023-05-17T14:41:39.383Z,13.20
2023-05-17T14:44:09.344Z,13.20
2023-05-17T14:46:38.778Z,13.20
2023-05-17T14:49:07.093Z,13.20
2023-05-17T14:51:35.028Z,13.18
2023-05-17T14:54:03.499Z,13.12
2023-05-17T14:56:32.353Z,13.10
2023-05-17T14:59:00.343Z,13.10
2023-05-17T15:01:28.434Z,13.04
2023-05-17T15:03:56.389Z,13.00
2023-05-17T15:06:26.093Z,13.00
2023-05-17T15:08:55.080Z,13.00
2023-05-17T15:11:23.810Z,12.90
2023-05-17T15:13:51.680Z,12.90
2023-05-17T15:16:19.821Z,12.80
2023-05-17T15:18:48.391Z,12.80
2023-05-17T15:21:19.019Z,12.80
2023-05-17T15:23:47.939Z,12.70
2023-05-17T15:26:15.964Z,12.70
2023-05-17T15:28:44.072Z,12.66
2023-05-17T15:31:11.862Z,12.60
2023-05-17T15:33:40.286Z,12.60
2023-05-17T15:36:08.554Z,12.60
2023-05-17T15:38:36.499Z,12.60
2023-05-17T15:41:06.106Z,12.60
2023-05-17T15:43:34.775Z,12.60
2023-05-17T15:46:02.624Z,12.58
2023-05-17T15:48:30.754Z,12.50
2023-05-17T15:50:58.757Z,12.50
2023-05-17T15:53:28.201Z,12.50
2023-05-17T15:55:56.866Z,12.50
2023-05-17T15:58:25.587Z,12.50
2023-05-17T16:00:54.451Z,12.52
2023-05-17T16:03:22.469Z,12.50
2023-05-17T16:05:50.910Z,12.50
2023-05-17T16:08:20.355Z,12.50
2023-05-17T16:10:48.177Z,12.50
2023-05-17T16:13:16.303Z,12.50
2023-05-17T16:15:44.377Z,12.50
2023-05-17T16:18:14.980Z,12.50
2023-05-17T16:20:43.423Z,12.50
2023-05-17T16:23:11.841Z,12.50
2023-05-17T16:25:40.050Z,12.50
2023-05-17T16:28:07.835Z,12.50
2023-05-17T16:30:36.126Z,12.50
2023-05-17T16:33:05.565Z,12.50
2023-05-17T16:35:35.603Z,12.40
2023-05-17T16:38:03.415Z,12.40
2023-05-17T16:40:31.602Z,12.40
2023-05-17T16:42:59.647Z,12.30
2023-05-17T16:45:27.721Z,12.30
2023-05-17T16:47:56.020Z,12.30
2023-05-17T16:50:24.021Z,12.30
2023-05-17T16:52:51.981Z,12.30
2023-05-17T16:55:19.811Z,12.30
2023-05-17T16:57:47.703Z,12.20
2023-05-17T17:00:16.974Z,12.20
2023-05-17T17:02:44.917Z,12.20
2023-05-17T17:05:12.965Z,12.10
2023-05-17T17:07:40.944Z,12.10
2023-05-17T17:10:09.453Z,12.10
2023-05-17T17:12:37.370Z,12.10
2023-05-17T17:15:07.792Z,12.00
2023-05-17T17:17:36.352Z,12.00
2023-05-17T17:20:06.280Z,12.00
2023-05-17T17:22:34.227Z,12.00
2023-05-17T17:25:02.124Z,11.94
2023-05-17T17:27:29.989Z,11.90
2023-05-17T17:29:57.852Z,11.90
2023-05-17T17:32:25.766Z,11.90
2023-05-17T17:34:53.644Z,11.90
2023-05-17T17:37:21.655Z,11.84
2023-05-17T17:39:49.614Z,11.80
2023-05-17T17:42:17.513Z,11.80
2023-05-17T17:44:45.361Z,11.80
2023-05-17T17:47:13.334Z,11.80
2023-05-17T17:53:26.866Z,11.80
2023-05-17T17:55:53.495Z,11.80
2023-05-17T17:58:20.662Z,11.74
2023-05-17T18:00:47.819Z,11.70
2023-05-17T18:03:14.431Z,11.70
2023-05-17T18:05:41.193Z,11.70
2023-05-17T18:08:07.695Z,11.70
2023-05-17T18:10:34.447Z,11.64
2023-05-17T18:13:00.835Z,11.60
2023-05-17T18:15:27.331Z,11.60
2023-05-17T18:17:54.664Z,11.60
2023-05-17T18:20:25.526Z,11.60
2023-05-17T18:22:51.924Z,11.50
2023-05-17T18:25:19.127Z,11.50
2023-05-17T18:27:45.733Z,11.50
2023-05-17T18:30:12.526Z,11.50
2023-05-17T18:32:39.217Z,11.46
2023-05-17T18:35:06.258Z,11.44
2023-05-17T18:37:32.755Z,11.40
2023-05-17T18:40:01.560Z,11.40
2023-05-17T18:42:28.439Z,11.40
2023-05-17T18:44:54.916Z,11.40
2023-05-17T18:47:26.810Z,11.40
2023-05-17T18:49:53.581Z,11.40
2023-05-17T18:52:20.196Z,11.36
2023-05-17T18:54:47.027Z,11.30
2023-05-17T18:57:14.639Z,11.30
2023-05-17T18:59:41.326Z,11.30
2023-05-17T19:02:07.915Z,11.30
2023-05-17T19:04:35.896Z,11.30
2023-05-17T19:07:02.843Z,11.30
2023-05-17T19:09:29.421Z,11.30
2023-05-17T19:11:56.125Z,11.30
2023-05-17T19:14:22.616Z,11.28
2023-05-17T19:16:50.936Z,11.22
2023-05-17T19:19:17.628Z,11.30
2023-05-17T19:21:44.056Z,11.24
2023-05-17T19:24:10.529Z,11.20
2023-05-17T19:26:37.148Z,11.20
2023-05-17T19:29:03.756Z,11.20
2023-05-17T19:31:30.431Z,11.20
2023-05-17T19:33:58.686Z,11.20
2023-05-17T19:36:25.379Z,11.20
2023-05-17T19:38:52.889Z,11.20
2023-05-17T19:41:19.845Z,11.20
2023-05-17T19:43:46.633Z,11.20
2023-05-17T19:46:13.103Z,11.20
2023-05-17T19:48:39.696Z,11.20
2023-05-17T19:51:06.279Z,11.20
2023-05-17T19:53:47.862Z,11.20
2023-05-17T19:56:18.786Z,11.20
2023-05-17T19:58:45.450Z,11.20
2023-05-17T20:01:12.090Z,11.18
2023-05-17T20:03:39.890Z,11.12
2023-05-17T20:06:08.871Z,11.14
2023-05-17T20:08:35.456Z,11.18
2023-05-17T20:11:01.979Z,11.20
2023-05-17T20:13:28.946Z,11.20
2023-05-17T20:15:55.545Z,11.20
2023-05-17T20:18:22.540Z,11.16
2023-05-17T20:20:50.376Z,11.10
2023-05-17T20:23:16.940Z,11.10
2023-05-17T20:25:43.474Z,11.10
2023-05-17T20:28:09.907Z,11.10
2023-05-17T20:30:36.451Z,11.10
2023-05-17T20:33:02.983Z,11.10
2023-05-17T20:35:29.610Z,11.10
2023-05-17T20:37:56.269Z,11.10
2023-05-17T20:40:22.922Z,11.10
2023-05-17T20:42:52.344Z,11.10
2023-05-17T20:45:19.155Z,11.10
2023-05-17T20:47:45.585Z,11.10
2023-05-17T20:50:13.529Z,11.10
2023-05-17T20:52:40.331Z,11.06
2023-05-17T20:55:08.481Z,11.08
2023-05-17T20:57:35.134Z,11.04
2023-05-17T21:00:02.128Z,11.00
2023-05-17T21:02:28.730Z,11.00
2023-05-17T21:04:55.368Z,11.00
2023-05-17T21:07:25.771Z,11.00
2023-05-17T21:09:52.287Z,11.00
2023-05-17T21:12:18.850Z,11.00
2023-05-17T21:14:45.833Z,10.96
2023-05-17T21:17:15.285Z,10.94
2023-05-17T21:19:41.900Z,11.00
2023-05-17T21:22:08.404Z,10.90
2023-05-17T21:24:34.955Z,10.90
2023-05-17T21:27:01.467Z,10.90
2023-05-17T21:29:27.944Z,10.90
2023-05-17T21:31:54.604Z,10.90
2023-05-17T21:34:21.176Z,10.90
2023-05-17T21:36:47.751Z,10.90
2023-05-17T21:39:14.240Z,10.86
2023-05-17T21:41:40.791Z,10.80
2023-05-17T21:44:07.382Z,10.80
2023-05-17T21:46:34.018Z,10.80
2023-05-17T21:49:00.479Z,10.80
2023-05-17T21:51:26.984Z,10.80
2023-05-17T21:53:53.466Z,10.70
2023-05-17T21:56:21.086Z,10.70
2023-05-17T21:58:47.658Z,10.70
2023-05-17T22:01:14.268Z,10.70
2023-05-17T22:03:41.385Z,10.70
2023-05-17T22:06:07.961Z,10.70
2023-05-17T22:08:34.526Z,10.70
2023-05-17T22:11:01.901Z,10.70
2023-05-17T22:13:28.467Z,10.70
2023-05-17T22:15:56.483Z,10.60
2023-05-17T22:18:22.978Z,10.60
2023-05-17T22:20:52.587Z,10.60
2023-05-17T22:23:19.998Z,10.60
2023-05-17T22:25:46.571Z,10.60
2023-05-17T22:28:13.118Z,10.60
2023-05-17T22:30:39.677Z,10.60
2023-05-17T22:33:06.163Z,10.60
2023-05-17T22:35:32.725Z,10.60
2023-05-17T22:37:59.207Z,10.60
2023-05-17T22:40:25.779Z,10.60
2023-05-17T22:42:53.565Z,10.60
2023-05-17T22:45:20.222Z,10.60
2023-05-17T22:47:46.946Z,10.58
2023-05-17T22:50:14.875Z,10.54
2023-05-17T22:52:42.227Z,10.56
2023-05-17T22:55:09.664Z,10.50
2023-05-17T22:57:36.268Z,10.50
2023-05-17T23:00:08.728Z,10.50
2023-05-17T23:02:35.507Z,10.50
2023-05-17T23:05:03.225Z,10.50
2023-05-17T23:07:36.286Z,10.50
2023-05-17T23:10:07.866Z,10.50
2023-05-17T23:12:36.350Z,10.50
2023-05-17T23:15:07.359Z,10.50
2023-05-17T23:17:34.788Z,10.50
2023-05-17T23:20:07.761Z,10.50
2023-05-17T23:22:34.399Z,10.40
2023-05-17T23:25:02.886Z,10.40
2023-05-17T23:27:29.692Z,10.40
2023-05-17T23:29:56.489Z,10.40
2023-05-17T23:32:23.055Z,10.40
2023-05-17T23:34:49.841Z,10.32
2023-05-17T23:37:16.546Z,10.30
2023-05-17T23:39:43.115Z,10.30
2023-05-17T23:42:09.647Z,10.20
2023-05-17T23:44:48.136Z,10.20
2023-05-17T23:47:15.169Z,10.20
2023-05-17T23:49:41.722Z,10.20
2023-05-17T23:52:11.374Z,10.20
2023-05-17T23:54:38.694Z,10.10
2023-05-17T23:57:06.181Z,10.10
2023-05-17T23:59:33.410Z,10.10
